sensor_id;sensor_type;location;lat;lon;timestamp;P1;durP1;ratioP1;P2;durP2;ratioP2
27365;SDS011;14837;57.148;-2.144;2022-11-20T00:01:09;15.63;;;4.07;;
27365;SDS011;14837;57.148;-2.144;2022-11-20T00:03:36;11.02;;;3.03;;
27365;SDS011;14837;57.148;-2.144;2022-11-20T00:06:07;19.40;;;3.35;;
27365;SDS011;14837;57.148;-2.144;2022-11-20T00:08:34;13.27;;;3.65;;
27365;SDS011;14837;57.148;-2.144;2022-11-20T00:11:07;12.85;;;3.17;;
27365;SDS011;14837;57.148;-2.144;2022-11-20T00:13:41;10.93;;;4.28;;
27365;SDS011;14837;57.148;-2.144;2022-11-20T00:16:08;15.77;;;4.07;;
27365;SDS011;14837;57.148;-2.144;2022-11-20T00:18:35;11.50;;;2.58;;
27365;SDS011;14837;57.148;-2.144;2022-11-20T00:21:03;7.20;;;2.88;;
27365;SDS011;14837;57.148;-2.144;2022-11-20T00:23:30;10.27;;;2.88;;
27365;SDS011;14837;57.148;-2.144;2022-11-20T00:26:00;12.77;;;2.78;;
27365;SDS011;14837;57.148;-2.144;2022-11-20T00:28:27;12.15;;;3.20;;
27365;SDS011;14837;57.148;-2.144;2022-11-20T00:30:59;8.65;;;2.35;;
27365;SDS011;14837;57.148;-2.144;2022-11-20T00:33:26;9.30;;;2.55;;
27365;SDS011;14837;57.148;-2.144;2022-11-20T00:35:53;10.00;;;3.53;;
27365;SDS011;14837;57.148;-2.144;2022-11-20T00:38:20;11.38;;;2.78;;
27365;SDS011;14837;57.148;-2.144;2022-11-20T00:40:46;16.13;;;3.92;;
27365;SDS011;14837;57.148;-2.144;2022-11-20T00:43:19;8.20;;;2.38;;
27365;SDS011;14837;57.148;-2.144;2022-11-20T00:45:46;13.48;;;3.20;;
27365;SDS011;14837;57.148;-2.144;2022-11-20T00:48:12;9.35;;;2.40;;
27365;SDS011;14837;57.148;-2.144;2022-11-20T00:50:39;11.15;;;2.95;;
27365;SDS011;14837;57.148;-2.144;2022-11-20T00:53:07;13.52;;;3.50;;
27365;SDS011;14837;57.148;-2.144;2022-11-20T00:55:33;9.18;;;2.92;;
27365;SDS011;14837;57.148;-2.144;2022-11-20T00:58:00;9.43;;;2.83;;
27365;SDS011;14837;57.148;-2.144;2022-11-20T01:00:29;15.60;;;3.85;;
27365;SDS011;14837;57.148;-2.144;2022-11-20T01:02:56;9.00;;;2.88;;
27365;SDS011;14837;57.148;-2.144;2022-11-20T01:05:22;7.97;;;2.67;;
27365;SDS011;14837;57.148;-2.144;2022-11-20T01:07:49;8.50;;;2.83;;
27365;SDS011;14837;57.148;-2.144;2022-11-20T01:10:15;6.35;;;2.50;;
27365;SDS011;14837;57.148;-2.144;2022-11-20T01:12:42;16.10;;;3.78;;
27365;SDS011;14837;57.148;-2.144;2022-11-20T01:15:08;14.48;;;4.88;;
27365;SDS011;14837;57.148;-2.144;2022-11-20T01:17:35;8.10;;;2.95;;
27365;SDS011;14837;57.148;-2.144;2022-11-20T01:20:02;13.77;;;3.20;;
27365;SDS011;14837;57.148;-2.144;2022-11-20T01:22:28;16.05;;;4.18;;
27365;SDS011;14837;57.148;-2.144;2022-11-20T01:24:54;12.93;;;3.10;;
27365;SDS011;14837;57.148;-2.144;2022-11-20T01:27:21;7.00;;;2.38;;
27365;SDS011;14837;57.148;-2.144;2022-11-20T01:29:47;9.57;;;3.40;;
27365;SDS011;14837;57.148;-2.144;2022-11-20T01:32:14;8.10;;;3.00;;
27365;SDS011;14837;57.148;-2.144;2022-11-20T01:34:41;12.38;;;3.65;;
27365;SDS011;14837;57.148;-2.144;2022-11-20T01:37:07;16.55;;;3.47;;
27365;SDS011;14837;57.148;-2.144;2022-11-20T01:39:34;12.52;;;3.20;;
27365;SDS011;14837;57.148;-2.144;2022-11-20T01:42:00;13.25;;;4.90;;
27365;SDS011;14837;57.148;-2.144;2022-11-20T01:44:50;9.18;;;3.20;;
27365;SDS011;14837;57.148;-2.144;2022-11-20T01:47:19;10.55;;;3.45;;
27365;SDS011;14837;57.148;-2.144;2022-11-20T01:49:48;14.52;;;3.45;;
27365;SDS011;14837;57.148;-2.144;2022-11-20T01:52:17;9.48;;;4.40;;
27365;SDS011;14837;57.148;-2.144;2022-11-20T01:54:49;14.82;;;3.97;;
27365;SDS011;14837;57.148;-2.144;2022-11-20T01:57:17;10.03;;;3.60;;
27365;SDS011;14837;57.148;-2.144;2022-11-20T01:59:44;10.43;;;3.83;;
27365;SDS011;14837;57.148;-2.144;2022-11-20T02:02:14;11.98;;;2.70;;
27365;SDS011;14837;57.148;-2.144;2022-11-20T02:04:40;12.00;;;3.13;;
27365;SDS011;14837;57.148;-2.144;2022-11-20T02:07:07;19.38;;;4.50;;
27365;SDS011;14837;57.148;-2.144;2022-11-20T02:09:34;11.55;;;3.58;;
27365;SDS011;14837;57.148;-2.144;2022-11-20T02:12:00;12.57;;;3.22;;
27365;SDS011;14837;57.148;-2.144;2022-11-20T02:14:27;18.60;;;5.43;;
27365;SDS011;14837;57.148;-2.144;2022-11-20T02:16:54;15.48;;;4.10;;
27365;SDS011;14837;57.148;-2.144;2022-11-20T02:19:24;16.48;;;4.60;;
27365;SDS011;14837;57.148;-2.144;2022-11-20T02:21:55;9.05;;;2.78;;
27365;SDS011;14837;57.148;-2.144;2022-11-20T02:24:23;10.35;;;3.45;;
27365;SDS011;14837;57.148;-2.144;2022-11-20T02:26:51;10.02;;;3.38;;
27365;SDS011;14837;57.148;-2.144;2022-11-20T02:29:38;11.07;;;2.75;;
27365;SDS011;14837;57.148;-2.144;2022-11-20T02:32:05;10.60;;;3.05;;
27365;SDS011;14837;57.148;-2.144;2022-11-20T02:34:32;10.60;;;3.67;;
27365;SDS011;14837;57.148;-2.144;2022-11-20T02:36:58;13.50;;;2.88;;
27365;SDS011;14837;57.148;-2.144;2022-11-20T02:39:26;13.20;;;4.28;;
27365;SDS011;14837;57.148;-2.144;2022-11-20T02:41:54;11.20;;;2.55;;
27365;SDS011;14837;57.148;-2.144;2022-11-20T02:44:21;11.00;;;3.70;;
27365;SDS011;14837;57.148;-2.144;2022-11-20T02:46:48;13.63;;;3.22;;
27365;SDS011;14837;57.148;-2.144;2022-11-20T02:49:14;11.88;;;3.47;;
27365;SDS011;14837;57.148;-2.144;2022-11-20T02:51:43;11.27;;;3.72;;
27365;SDS011;14837;57.148;-2.144;2022-11-20T02:54:09;18.50;;;3.63;;
27365;SDS011;14837;57.148;-2.144;2022-11-20T02:56:37;11.57;;;3.50;;
27365;SDS011;14837;57.148;-2.144;2022-11-20T02:59:04;8.48;;;2.60;;
27365;SDS011;14837;57.148;-2.144;2022-11-20T03:01:30;8.02;;;2.92;;
27365;SDS011;14837;57.148;-2.144;2022-11-20T03:03:57;8.60;;;3.95;;
27365;SDS011;14837;57.148;-2.144;2022-11-20T03:06:23;12.98;;;3.33;;
27365;SDS011;14837;57.148;-2.144;2022-11-20T03:08:50;15.13;;;3.58;;
27365;SDS011;14837;57.148;-2.144;2022-11-20T03:11:17;9.43;;;3.33;;
27365;SDS011;14837;57.148;-2.144;2022-11-20T03:13:44;9.55;;;3.88;;
27365;SDS011;14837;57.148;-2.144;2022-11-20T03:16:15;10.57;;;3.80;;
27365;SDS011;14837;57.148;-2.144;2022-11-20T03:18:43;12.63;;;3.72;;
27365;SDS011;14837;57.148;-2.144;2022-11-20T03:21:10;11.40;;;3.65;;
27365;SDS011;14837;57.148;-2.144;2022-11-20T03:23:37;8.98;;;3.63;;
27365;SDS011;14837;57.148;-2.144;2022-11-20T03:26:23;9.32;;;3.95;;
27365;SDS011;14837;57.148;-2.144;2022-11-20T03:28:57;13.15;;;3.33;;
27365;SDS011;14837;57.148;-2.144;2022-11-20T03:31:25;11.00;;;4.30;;
27365;SDS011;14837;57.148;-2.144;2022-11-20T03:33:52;13.00;;;3.92;;
27365;SDS011;14837;57.148;-2.144;2022-11-20T03:36:19;11.10;;;3.38;;
27365;SDS011;14837;57.148;-2.144;2022-11-20T03:38:46;13.82;;;3.13;;
27365;SDS011;14837;57.148;-2.144;2022-11-20T03:41:14;10.73;;;4.00;;
27365;SDS011;14837;57.148;-2.144;2022-11-20T03:43:41;12.88;;;3.63;;
27365;SDS011;14837;57.148;-2.144;2022-11-20T03:46:08;7.53;;;3.53;;
27365;SDS011;14837;57.148;-2.144;2022-11-20T03:48:34;9.55;;;3.38;;
27365;SDS011;14837;57.148;-2.144;2022-11-20T03:51:08;6.88;;;1.90;;
27365;SDS011;14837;57.148;-2.144;2022-11-20T03:53:34;6.88;;;1.95;;
27365;SDS011;14837;57.148;-2.144;2022-11-20T03:56:01;4.40;;;1.83;;
27365;SDS011;14837;57.148;-2.144;2022-11-20T03:58:27;3.35;;;1.50;;
27365;SDS011;14837;57.148;-2.144;2022-11-20T04:00:54;5.32;;;1.98;;
27365;SDS011;14837;57.148;-2.144;2022-11-20T04:03:28;6.13;;;1.75;;
27365;SDS011;14837;57.148;-2.144;2022-11-20T04:05:54;6.32;;;1.63;;
27365;SDS011;14837;57.148;-2.144;2022-11-20T04:08:21;7.57;;;2.28;;
27365;SDS011;14837;57.148;-2.144;2022-11-20T04:10:47;9.05;;;1.98;;
27365;SDS011;14837;57.148;-2.144;2022-11-20T04:13:14;5.65;;;2.17;;
27365;SDS011;14837;57.148;-2.144;2022-11-20T04:15:40;7.40;;;1.73;;
27365;SDS011;14837;57.148;-2.144;2022-11-20T04:18:07;6.65;;;1.90;;
27365;SDS011;14837;57.148;-2.144;2022-11-20T04:20:33;3.97;;;1.70;;
27365;SDS011;14837;57.148;-2.144;2022-11-20T04:23:01;4.32;;;1.80;;
27365;SDS011;14837;57.148;-2.144;2022-11-20T04:25:27;8.15;;;2.05;;
27365;SDS011;14837;57.148;-2.144;2022-11-20T04:27:54;7.03;;;2.15;;
27365;SDS011;14837;57.148;-2.144;2022-11-20T04:30:20;8.13;;;2.10;;
27365;SDS011;14837;57.148;-2.144;2022-11-20T04:32:47;4.45;;;1.48;;
27365;SDS011;14837;57.148;-2.144;2022-11-20T04:35:13;3.63;;;2.13;;
27365;SDS011;14837;57.148;-2.144;2022-11-20T04:37:40;6.43;;;2.47;;
27365;SDS011;14837;57.148;-2.144;2022-11-20T04:40:07;6.07;;;1.38;;
27365;SDS011;14837;57.148;-2.144;2022-11-20T04:42:33;3.70;;;1.38;;
27365;SDS011;14837;57.148;-2.144;2022-11-20T04:45:00;10.45;;;1.63;;
27365;SDS011;14837;57.148;-2.144;2022-11-20T04:47:26;5.47;;;1.45;;
27365;SDS011;14837;57.148;-2.144;2022-11-20T04:49:53;5.53;;;1.75;;
27365;SDS011;14837;57.148;-2.144;2022-11-20T04:52:19;9.40;;;2.13;;
27365;SDS011;14837;57.148;-2.144;2022-11-20T04:54:46;3.72;;;1.48;;
27365;SDS011;14837;57.148;-2.144;2022-11-20T04:57:13;3.33;;;1.30;;
27365;SDS011;14837;57.148;-2.144;2022-11-20T04:59:40;7.38;;;1.63;;
27365;SDS011;14837;57.148;-2.144;2022-11-20T05:02:07;7.00;;;2.13;;
27365;SDS011;14837;57.148;-2.144;2022-11-20T05:04:33;7.43;;;1.85;;
27365;SDS011;14837;57.148;-2.144;2022-11-20T05:06:59;5.40;;;1.88;;
27365;SDS011;14837;57.148;-2.144;2022-11-20T05:09:26;3.67;;;1.42;;
27365;SDS011;14837;57.148;-2.144;2022-11-20T05:11:53;13.27;;;2.47;;
27365;SDS011;14837;57.148;-2.144;2022-11-20T05:14:19;5.50;;;1.65;;
27365;SDS011;14837;57.148;-2.144;2022-11-20T05:16:46;9.90;;;1.92;;
27365;SDS011;14837;57.148;-2.144;2022-11-20T05:19:12;4.53;;;1.85;;
27365;SDS011;14837;57.148;-2.144;2022-11-20T05:21:39;5.07;;;1.48;;
27365;SDS011;14837;57.148;-2.144;2022-11-20T05:24:05;5.10;;;1.73;;
27365;SDS011;14837;57.148;-2.144;2022-11-20T05:26:33;5.40;;;1.15;;
27365;SDS011;14837;57.148;-2.144;2022-11-20T05:28:59;6.25;;;1.50;;
27365;SDS011;14837;57.148;-2.144;2022-11-20T05:31:26;7.53;;;1.30;;
27365;SDS011;14837;57.148;-2.144;2022-11-20T05:33:54;4.20;;;1.23;;
27365;SDS011;14837;57.148;-2.144;2022-11-20T05:36:21;7.03;;;1.35;;
27365;SDS011;14837;57.148;-2.144;2022-11-20T05:38:47;4.10;;;1.23;;
27365;SDS011;14837;57.148;-2.144;2022-11-20T05:41:18;5.07;;;1.60;;
27365;SDS011;14837;57.148;-2.144;2022-11-20T05:43:46;3.53;;;1.40;;
27365;SDS011;14837;57.148;-2.144;2022-11-20T05:46:13;6.13;;;1.90;;
27365;SDS011;14837;57.148;-2.144;2022-11-20T05:48:40;4.82;;;1.50;;
27365;SDS011;14837;57.148;-2.144;2022-11-20T05:51:08;6.78;;;2.30;;
27365;SDS011;14837;57.148;-2.144;2022-11-20T05:53:35;7.90;;;2.20;;
27365;SDS011;14837;57.148;-2.144;2022-11-20T05:56:15;6.93;;;2.10;;
27365;SDS011;14837;57.148;-2.144;2022-11-20T05:58:42;4.68;;;2.40;;
27365;SDS011;14837;57.148;-2.144;2022-11-20T06:01:10;4.35;;;1.52;;
27365;SDS011;14837;57.148;-2.144;2022-11-20T06:03:37;4.05;;;1.73;;
27365;SDS011;14837;57.148;-2.144;2022-11-20T06:06:04;5.45;;;2.33;;
27365;SDS011;14837;57.148;-2.144;2022-11-20T06:08:32;8.55;;;1.70;;
27365;SDS011;14837;57.148;-2.144;2022-11-20T06:10:58;4.50;;;1.15;;
27365;SDS011;14837;57.148;-2.144;2022-11-20T06:13:28;3.58;;;1.30;;
27365;SDS011;14837;57.148;-2.144;2022-11-20T06:15:55;4.80;;;1.70;;
27365;SDS011;14837;57.148;-2.144;2022-11-20T06:18:21;4.25;;;1.38;;
27365;SDS011;14837;57.148;-2.144;2022-11-20T06:20:48;6.10;;;1.92;;
27365;SDS011;14837;57.148;-2.144;2022-11-20T06:23:14;5.45;;;1.85;;
27365;SDS011;14837;57.148;-2.144;2022-11-20T06:25:41;6.63;;;1.80;;
27365;SDS011;14837;57.148;-2.144;2022-11-20T06:28:08;5.03;;;1.95;;
27365;SDS011;14837;57.148;-2.144;2022-11-20T06:30:35;6.38;;;1.30;;
27365;SDS011;14837;57.148;-2.144;2022-11-20T06:33:01;5.82;;;2.00;;
27365;SDS011;14837;57.148;-2.144;2022-11-20T06:35:28;2.55;;;1.65;;
27365;SDS011;14837;57.148;-2.144;2022-11-20T06:37:55;4.32;;;1.75;;
27365;SDS011;14837;57.148;-2.144;2022-11-20T06:40:22;6.57;;;2.60;;
27365;SDS011;14837;57.148;-2.144;2022-11-20T06:42:48;4.55;;;2.78;;
27365;SDS011;14837;57.148;-2.144;2022-11-20T06:45:15;5.82;;;1.88;;
27365;SDS011;14837;57.148;-2.144;2022-11-20T06:47:41;5.40;;;2.30;;
27365;SDS011;14837;57.148;-2.144;2022-11-20T06:50:08;6.93;;;2.13;;
27365;SDS011;14837;57.148;-2.144;2022-11-20T06:52:34;5.45;;;2.50;;
27365;SDS011;14837;57.148;-2.144;2022-11-20T06:55:08;10.05;;;2.92;;
27365;SDS011;14837;57.148;-2.144;2022-11-20T06:57:35;4.60;;;2.40;;
27365;SDS011;14837;57.148;-2.144;2022-11-20T07:00:01;6.28;;;2.45;;
27365;SDS011;14837;57.148;-2.144;2022-11-20T07:02:28;6.95;;;2.70;;
27365;SDS011;14837;57.148;-2.144;2022-11-20T07:04:54;5.20;;;2.28;;
27365;SDS011;14837;57.148;-2.144;2022-11-20T07:07:21;12.05;;;2.58;;
27365;SDS011;14837;57.148;-2.144;2022-11-20T07:09:47;6.13;;;1.83;;
27365;SDS011;14837;57.148;-2.144;2022-11-20T07:12:14;7.03;;;1.88;;
27365;SDS011;14837;57.148;-2.144;2022-11-20T07:14:40;8.43;;;1.92;;
27365;SDS011;14837;57.148;-2.144;2022-11-20T07:17:07;6.47;;;2.10;;
27365;SDS011;14837;57.148;-2.144;2022-11-20T07:19:34;5.20;;;1.67;;
27365;SDS011;14837;57.148;-2.144;2022-11-20T07:22:00;6.40;;;1.40;;
27365;SDS011;14837;57.148;-2.144;2022-11-20T07:24:27;6.05;;;1.88;;
27365;SDS011;14837;57.148;-2.144;2022-11-20T07:26:53;5.03;;;2.00;;
27365;SDS011;14837;57.148;-2.144;2022-11-20T07:29:20;6.13;;;2.10;;
27365;SDS011;14837;57.148;-2.144;2022-11-20T07:31:47;6.57;;;1.70;;
27365;SDS011;14837;57.148;-2.144;2022-11-20T07:34:13;8.60;;;2.20;;
27365;SDS011;14837;57.148;-2.144;2022-11-20T07:36:40;7.32;;;1.70;;
27365;SDS011;14837;57.148;-2.144;2022-11-20T07:39:06;5.45;;;1.88;;
27365;SDS011;14837;57.148;-2.144;2022-11-20T07:41:33;4.53;;;1.50;;
27365;SDS011;14837;57.148;-2.144;2022-11-20T07:43:59;2.38;;;1.40;;
27365;SDS011;14837;57.148;-2.144;2022-11-20T07:46:26;3.53;;;1.90;;
27365;SDS011;14837;57.148;-2.144;2022-11-20T07:48:52;5.28;;;1.17;;
27365;SDS011;14837;57.148;-2.144;2022-11-20T07:51:19;7.82;;;2.13;;
27365;SDS011;14837;57.148;-2.144;2022-11-20T07:53:46;3.28;;;1.20;;
27365;SDS011;14837;57.148;-2.144;2022-11-20T07:56:12;5.80;;;1.83;;
27365;SDS011;14837;57.148;-2.144;2022-11-20T07:58:40;7.60;;;1.45;;
27365;SDS011;14837;57.148;-2.144;2022-11-20T08:01:06;5.40;;;2.80;;
27365;SDS011;14837;57.148;-2.144;2022-11-20T08:03:34;5.55;;;1.02;;
27365;SDS011;14837;57.148;-2.144;2022-11-20T08:06:00;1.83;;;1.15;;
27365;SDS011;14837;57.148;-2.144;2022-11-20T08:08:27;4.78;;;1.40;;
27365;SDS011;14837;57.148;-2.144;2022-11-20T08:10:58;3.08;;;1.30;;
27365;SDS011;14837;57.148;-2.144;2022-11-20T08:13:44;5.97;;;1.73;;
27365;SDS011;14837;57.148;-2.144;2022-11-20T08:16:29;7.00;;;1.45;;
27365;SDS011;14837;57.148;-2.144;2022-11-20T08:18:55;6.53;;;1.00;;
27365;SDS011;14837;57.148;-2.144;2022-11-20T08:21:22;2.85;;;1.05;;
27365;SDS011;14837;57.148;-2.144;2022-11-20T08:23:50;2.20;;;1.02;;
27365;SDS011;14837;57.148;-2.144;2022-11-20T08:26:16;7.53;;;2.33;;
27365;SDS011;14837;57.148;-2.144;2022-11-20T08:28:43;6.82;;;1.48;;
27365;SDS011;14837;57.148;-2.144;2022-11-20T08:31:10;5.35;;;1.35;;
27365;SDS011;14837;57.148;-2.144;2022-11-20T08:33:36;5.00;;;1.17;;
27365;SDS011;14837;57.148;-2.144;2022-11-20T08:36:03;4.00;;;1.48;;
27365;SDS011;14837;57.148;-2.144;2022-11-20T08:38:30;4.28;;;1.30;;
27365;SDS011;14837;57.148;-2.144;2022-11-20T08:40:57;3.78;;;1.00;;
27365;SDS011;14837;57.148;-2.144;2022-11-20T08:43:42;2.42;;;0.77;;
27365;SDS011;14837;57.148;-2.144;2022-11-20T08:46:09;1.80;;;0.60;;
27365;SDS011;14837;57.148;-2.144;2022-11-20T08:48:35;2.60;;;1.02;;
27365;SDS011;14837;57.148;-2.144;2022-11-20T08:51:02;1.75;;;0.70;;
27365;SDS011;14837;57.148;-2.144;2022-11-20T08:53:28;3.70;;;1.33;;
27365;SDS011;14837;57.148;-2.144;2022-11-20T08:55:56;2.40;;;0.98;;
27365;SDS011;14837;57.148;-2.144;2022-11-20T08:58:23;3.25;;;1.25;;
27365;SDS011;14837;57.148;-2.144;2022-11-20T09:00:49;4.13;;;1.10;;
27365;SDS011;14837;57.148;-2.144;2022-11-20T09:03:16;4.07;;;1.20;;
27365;SDS011;14837;57.148;-2.144;2022-11-20T09:05:42;2.13;;;0.98;;
27365;SDS011;14837;57.148;-2.144;2022-11-20T09:08:09;5.82;;;2.65;;
27365;SDS011;14837;57.148;-2.144;2022-11-20T09:10:35;7.38;;;1.20;;
27365;SDS011;14837;57.148;-2.144;2022-11-20T09:13:02;4.80;;;1.13;;
27365;SDS011;14837;57.148;-2.144;2022-11-20T09:15:29;6.57;;;1.08;;
27365;SDS011;14837;57.148;-2.144;2022-11-20T09:17:57;5.20;;;1.33;;
27365;SDS011;14837;57.148;-2.144;2022-11-20T09:20:25;2.55;;;1.30;;
27365;SDS011;14837;57.148;-2.144;2022-11-20T09:22:51;9.57;;;1.38;;
27365;SDS011;14837;57.148;-2.144;2022-11-20T09:25:18;5.35;;;1.15;;
27365;SDS011;14837;57.148;-2.144;2022-11-20T09:27:44;6.05;;;1.40;;
27365;SDS011;14837;57.148;-2.144;2022-11-20T09:30:13;5.80;;;1.63;;
27365;SDS011;14837;57.148;-2.144;2022-11-20T09:32:39;4.60;;;1.17;;
27365;SDS011;14837;57.148;-2.144;2022-11-20T09:35:06;4.75;;;1.50;;
27365;SDS011;14837;57.148;-2.144;2022-11-20T09:37:33;6.32;;;1.55;;
27365;SDS011;14837;57.148;-2.144;2022-11-20T09:40:00;5.25;;;1.65;;
27365;SDS011;14837;57.148;-2.144;2022-11-20T09:42:36;4.82;;;1.60;;
27365;SDS011;14837;57.148;-2.144;2022-11-20T09:45:23;3.13;;;1.48;;
27365;SDS011;14837;57.148;-2.144;2022-11-20T09:53:11;3.40;;;1.15;;
27365;SDS011;14837;57.148;-2.144;2022-11-20T09:55:38;3.83;;;1.10;;
27365;SDS011;14837;57.148;-2.144;2022-11-20T09:58:06;1.80;;;0.95;;
27365;SDS011;14837;57.148;-2.144;2022-11-20T10:00:34;3.30;;;1.02;;
27365;SDS011;14837;57.148;-2.144;2022-11-20T10:08:11;7.07;;;2.28;;
27365;SDS011;14837;57.148;-2.144;2022-11-20T10:10:45;2.25;;;1.30;;
27365;SDS011;14837;57.148;-2.144;2022-11-20T10:24:17;4.38;;;1.67;;
27365;SDS011;14837;57.148;-2.144;2022-11-20T10:26:48;5.53;;;1.00;;
27365;SDS011;14837;57.148;-2.144;2022-11-20T10:29:19;5.70;;;1.45;;
27365;SDS011;14837;57.148;-2.144;2022-11-20T10:31:50;11.15;;;1.50;;
27365;SDS011;14837;57.148;-2.144;2022-11-20T10:34:22;3.35;;;1.48;;
27365;SDS011;14837;57.148;-2.144;2022-11-20T10:36:58;5.55;;;1.25;;
27365;SDS011;14837;57.148;-2.144;2022-11-20T10:39:28;5.15;;;1.50;;
27365;SDS011;14837;57.148;-2.144;2022-11-20T10:41:57;3.80;;;1.23;;
27365;SDS011;14837;57.148;-2.144;2022-11-20T10:44:28;4.60;;;1.20;;
27365;SDS011;14837;57.148;-2.144;2022-11-20T10:49:46;3.00;;;1.38;;
27365;SDS011;14837;57.148;-2.144;2022-11-20T11:02:21;2.28;;;1.80;;
27365;SDS011;14837;57.148;-2.144;2022-11-20T11:07:31;5.95;;;1.63;;
27365;SDS011;14837;57.148;-2.144;2022-11-20T11:10:01;4.03;;;2.08;;
27365;SDS011;14837;57.148;-2.144;2022-11-20T11:12:28;7.32;;;2.13;;
27365;SDS011;14837;57.148;-2.144;2022-11-20T11:14:55;6.88;;;1.77;;
27365;SDS011;14837;57.148;-2.144;2022-11-20T11:17:32;4.75;;;2.08;;
27365;SDS011;14837;57.148;-2.144;2022-11-20T11:22:51;6.65;;;1.60;;
27365;SDS011;14837;57.148;-2.144;2022-11-20T11:25:20;6.78;;;2.30;;
27365;SDS011;14837;57.148;-2.144;2022-11-20T11:27:47;4.90;;;2.05;;
27365;SDS011;14837;57.148;-2.144;2022-11-20T11:30:14;6.22;;;1.88;;
27365;SDS011;14837;57.148;-2.144;2022-11-20T11:32:42;5.30;;;2.75;;
27365;SDS011;14837;57.148;-2.144;2022-11-20T11:35:30;7.72;;;2.22;;
27365;SDS011;14837;57.148;-2.144;2022-11-20T11:38:03;7.70;;;2.90;;
27365;SDS011;14837;57.148;-2.144;2022-11-20T11:40:31;6.85;;;3.58;;
27365;SDS011;14837;57.148;-2.144;2022-11-20T11:43:16;3.22;;;2.05;;
27365;SDS011;14837;57.148;-2.144;2022-11-20T11:46:04;3.53;;;2.10;;
27365;SDS011;14837;57.148;-2.144;2022-11-20T11:48:31;3.53;;;2.30;;
27365;SDS011;14837;57.148;-2.144;2022-11-20T11:50:57;6.22;;;3.50;;
27365;SDS011;14837;57.148;-2.144;2022-11-20T11:53:24;3.17;;;2.70;;
27365;SDS011;14837;57.148;-2.144;2022-11-20T11:56:25;3.10;;;2.80;;
27365;SDS011;14837;57.148;-2.144;2022-11-20T11:58:48;5.07;;;2.70;;
27365;SDS011;14837;57.148;-2.144;2022-11-20T12:06:32;4.15;;;3.13;;
27365;SDS011;14837;57.148;-2.144;2022-11-20T12:09:09;3.63;;;3.05;;
27365;SDS011;14837;57.148;-2.144;2022-11-20T12:11:46;3.30;;;2.80;;
27365;SDS011;14837;57.148;-2.144;2022-11-20T12:14:20;2.80;;;2.15;;
27365;SDS011;14837;57.148;-2.144;2022-11-20T12:16:50;4.85;;;2.60;;
27365;SDS011;14837;57.148;-2.144;2022-11-20T12:19:18;2.80;;;2.03;;
27365;SDS011;14837;57.148;-2.144;2022-11-20T12:21:54;3.85;;;2.83;;
27365;SDS011;14837;57.148;-2.144;2022-11-20T12:24:31;3.22;;;2.50;;
27365;SDS011;14837;57.148;-2.144;2022-11-20T12:34:56;4.82;;;3.40;;
27365;SDS011;14837;57.148;-2.144;2022-11-20T12:40:06;7.85;;;2.60;;
27365;SDS011;14837;57.148;-2.144;2022-11-20T12:42:59;4.68;;;2.67;;
27365;SDS011;14837;57.148;-2.144;2022-11-20T12:50:56;6.38;;;2.40;;
27365;SDS011;14837;57.148;-2.144;2022-11-20T12:56:52;4.15;;;2.58;;
27365;SDS011;14837;57.148;-2.144;2022-11-20T12:59:47;3.58;;;1.90;;
27365;SDS011;14837;57.148;-2.144;2022-11-20T13:02:26;2.13;;;1.83;;
27365;SDS011;14837;57.148;-2.144;2022-11-20T13:07:34;8.63;;;2.50;;
27365;SDS011;14837;57.148;-2.144;2022-11-20T13:10:01;6.03;;;3.30;;
27365;SDS011;14837;57.148;-2.144;2022-11-20T13:12:40;7.20;;;4.13;;
27365;SDS011;14837;57.148;-2.144;2022-11-20T13:17:54;4.22;;;2.65;;
27365;SDS011;14837;57.148;-2.144;2022-11-20T13:20:21;5.20;;;2.65;;
27365;SDS011;14837;57.148;-2.144;2022-11-20T13:22:49;5.90;;;2.42;;
27365;SDS011;14837;57.148;-2.144;2022-11-20T13:25:33;6.03;;;3.70;;
27365;SDS011;14837;57.148;-2.144;2022-11-20T13:28:46;8.90;;;4.35;;
27365;SDS011;14837;57.148;-2.144;2022-11-20T13:30:51;5.55;;;3.58;;
27365;SDS011;14837;57.148;-2.144;2022-11-20T13:35:55;2.00;;;1.70;;
27365;SDS011;14837;57.148;-2.144;2022-11-20T13:38:22;5.47;;;2.00;;
27365;SDS011;14837;57.148;-2.144;2022-11-20T13:40:53;3.88;;;2.35;;
27365;SDS011;14837;57.148;-2.144;2022-11-20T13:45:56;5.03;;;2.55;;
27365;SDS011;14837;57.148;-2.144;2022-11-20T13:48:24;2.95;;;2.65;;
27365;SDS011;14837;57.148;-2.144;2022-11-20T13:51:04;5.45;;;2.65;;
27365;SDS011;14837;57.148;-2.144;2022-11-20T13:53:37;2.53;;;1.70;;
27365;SDS011;14837;57.148;-2.144;2022-11-20T13:56:11;4.13;;;2.47;;
27365;SDS011;14837;57.148;-2.144;2022-11-20T14:01:20;5.90;;;2.53;;
27365;SDS011;14837;57.148;-2.144;2022-11-20T14:03:48;3.40;;;1.92;;
27365;SDS011;14837;57.148;-2.144;2022-11-20T14:08:58;5.95;;;2.75;;
27365;SDS011;14837;57.148;-2.144;2022-11-20T14:11:29;4.40;;;2.22;;
27365;SDS011;14837;57.148;-2.144;2022-11-20T14:13:57;4.78;;;2.60;;
27365;SDS011;14837;57.148;-2.144;2022-11-20T14:16:24;4.22;;;2.83;;
27365;SDS011;14837;57.148;-2.144;2022-11-20T14:18:52;3.92;;;3.50;;
27365;SDS011;14837;57.148;-2.144;2022-11-20T14:21:25;5.18;;;3.45;;
27365;SDS011;14837;57.148;-2.144;2022-11-20T14:23:52;6.30;;;3.05;;
27365;SDS011;14837;57.148;-2.144;2022-11-20T14:26:19;3.10;;;2.40;;
27365;SDS011;14837;57.148;-2.144;2022-11-20T14:28:49;3.60;;;2.85;;
27365;SDS011;14837;57.148;-2.144;2022-11-20T14:31:19;7.43;;;2.65;;
27365;SDS011;14837;57.148;-2.144;2022-11-20T14:33:47;10.88;;;3.90;;
27365;SDS011;14837;57.148;-2.144;2022-11-20T14:36:17;8.52;;;2.50;;
27365;SDS011;14837;57.148;-2.144;2022-11-20T14:38:44;3.17;;;1.65;;
27365;SDS011;14837;57.148;-2.144;2022-11-20T14:41:16;3.78;;;2.13;;
27365;SDS011;14837;57.148;-2.144;2022-11-20T14:44:04;3.72;;;2.22;;
27365;SDS011;14837;57.148;-2.144;2022-11-20T14:46:30;5.03;;;2.50;;
27365;SDS011;14837;57.148;-2.144;2022-11-20T14:49:00;5.57;;;2.65;;
27365;SDS011;14837;57.148;-2.144;2022-11-20T14:51:29;3.53;;;2.40;;
27365;SDS011;14837;57.148;-2.144;2022-11-20T14:54:07;4.95;;;3.33;;
27365;SDS011;14837;57.148;-2.144;2022-11-20T14:56:33;5.13;;;2.55;;
27365;SDS011;14837;57.148;-2.144;2022-11-20T14:59:00;5.07;;;3.15;;
27365;SDS011;14837;57.148;-2.144;2022-11-20T15:01:30;5.95;;;3.60;;
27365;SDS011;14837;57.148;-2.144;2022-11-20T15:04:08;5.53;;;3.47;;
27365;SDS011;14837;57.148;-2.144;2022-11-20T15:06:35;4.35;;;3.30;;
27365;SDS011;14837;57.148;-2.144;2022-11-20T15:09:03;5.68;;;3.30;;
27365;SDS011;14837;57.148;-2.144;2022-11-20T15:11:31;8.00;;;4.38;;
27365;SDS011;14837;57.148;-2.144;2022-11-20T15:13:58;4.88;;;3.33;;
27365;SDS011;14837;57.148;-2.144;2022-11-20T15:16:28;6.55;;;3.60;;
27365;SDS011;14837;57.148;-2.144;2022-11-20T15:18:54;5.20;;;2.92;;
27365;SDS011;14837;57.148;-2.144;2022-11-20T15:21:21;4.32;;;3.15;;
27365;SDS011;14837;57.148;-2.144;2022-11-20T15:23:48;5.10;;;3.22;;
27365;SDS011;14837;57.148;-2.144;2022-11-20T15:26:20;4.22;;;3.22;;
27365;SDS011;14837;57.148;-2.144;2022-11-20T15:28:47;4.97;;;3.27;;
27365;SDS011;14837;57.148;-2.144;2022-11-20T15:31:17;4.25;;;3.20;;
27365;SDS011;14837;57.148;-2.144;2022-11-20T15:33:44;5.30;;;3.65;;
27365;SDS011;14837;57.148;-2.144;2022-11-20T15:36:11;5.03;;;3.67;;
27365;SDS011;14837;57.148;-2.144;2022-11-20T15:38:38;7.80;;;3.90;;
27365;SDS011;14837;57.148;-2.144;2022-11-20T15:41:05;8.73;;;2.60;;
27365;SDS011;14837;57.148;-2.144;2022-11-20T15:43:31;6.95;;;3.60;;
27365;SDS011;14837;57.148;-2.144;2022-11-20T15:48:29;11.73;;;8.60;;
27365;SDS011;14837;57.148;-2.144;2022-11-20T15:53:38;26.75;;;19.67;;
27365;SDS011;14837;57.148;-2.144;2022-11-20T15:56:05;27.38;;;17.92;;
27365;SDS011;14837;57.148;-2.144;2022-11-20T15:58:31;16.13;;;11.48;;
27365;SDS011;14837;57.148;-2.144;2022-11-20T16:00:58;16.92;;;10.65;;
27365;SDS011;14837;57.148;-2.144;2022-11-20T16:03:24;21.00;;;15.05;;
27365;SDS011;14837;57.148;-2.144;2022-11-20T16:05:51;15.63;;;12.07;;